Time;durP1;ratioP1;P1;durP2;ratioP2;P2;SDS_P1;SDS_P2;PMS_P1;PMS_P2;Temp;Humidity;BMP_temperature;BMP_pressure;BME280_temperature;BME280_humidity;BME280_pressure;Samples;Min_cycle;Max_cycle;Signal;HPM_P1;HPM_P2
2022/05/14 00:00:37;;;;;;;8.18;3.40;;;14.30;99.90;;;;;;5053674;28;20253;-54
2022/05/14 00:03:03;;;;;;;9.00;3.33;;;14.40;99.90;;;;;;5052838;28;20206;-54
2022/05/14 00:05:29;;;;;;;7.63;3.03;;;14.40;99.90;;;;;;5052147;28;20189;-54
2022/05/14 00:07:55;;;;;;;9.13;3.35;;;14.30;99.90;;;;;;5053612;28;20171;-55
2022/05/14 00:10:24;;;;;;;6.50;3.05;;;14.30;99.90;;;;;;5053375;28;20167;-55
2022/05/14 00:13:05;;;;;;;7.97;2.85;;;14.30;99.90;;;;;;5053380;28;20297;-54
2022/05/14 00:15:40;;;;;;;7.97;2.72;;;14.20;99.90;;;;;;5052902;28;20252;-54
2022/05/14 00:18:08;;;;;;;10.20;3.00;;;14.30;99.90;;;;;;5052976;28;20261;-55
2022/05/14 00:20:36;;;;;;;8.50;3.55;;;14.20;99.90;;;;;;5053079;28;20245;-55
2022/05/14 00:23:02;;;;;;;4.15;2.55;;;14.20;99.90;;;;;;5053170;28;20163;-55
2022/05/14 00:25:27;;;;;;;5.63;2.95;;;14.10;99.90;;;;;;5053179;28;20209;-55
2022/05/14 00:27:53;;;;;;;6.70;2.60;;;14.10;99.90;;;;;;5053103;28;20194;-55
2022/05/14 00:30:23;;;;;;;6.45;3.15;;;14.10;99.90;;;;;;5053072;28;20237;-61
2022/05/14 00:32:50;;;;;;;5.90;2.85;;;14.10;99.90;;;;;;5053135;28;20210;-60
2022/05/14 00:35:16;;;;;;;7.13;2.78;;;14.10;99.90;;;;;;5052912;28;20170;-60
2022/05/14 00:37:42;;;;;;;6.10;2.95;;;14.10;99.90;;;;;;5053151;28;20171;-55
2022/05/14 00:40:14;;;;;;;6.80;2.75;;;14.00;99.90;;;;;;5053194;28;20166;-55
2022/05/14 00:42:40;;;;;;;6.32;2.97;;;14.00;99.90;;;;;;5053163;28;20181;-55
2022/05/14 00:45:07;;;;;;;6.43;2.80;;;14.10;99.90;;;;;;5052738;28;20159;-53
2022/05/14 00:47:37;;;;;;;6.88;2.70;;;14.00;99.90;;;;;;5052958;28;20194;-55
2022/05/14 00:50:15;;;;;;;8.75;2.58;;;14.10;99.90;;;;;;5052617;28;20646;-54
2022/05/14 00:52:41;;;;;;;6.28;2.60;;;14.00;99.90;;;;;;5052881;28;20198;-54
2022/05/14 00:55:07;;;;;;;4.35;2.80;;;13.90;99.90;;;;;;5052971;28;20162;-55
2022/05/14 00:57:37;;;;;;;4.63;2.72;;;13.80;99.90;;;;;;5052501;28;20171;-55
2022/05/14 01:00:08;;;;;;;12.68;3.13;;;13.90;99.90;;;;;;5052715;28;20169;-55
2022/05/14 01:02:34;;;;;;;6.93;2.60;;;13.90;99.90;;;;;;5052195;28;20167;-55
2022/05/14 01:05:00;;;;;;;7.32;3.08;;;13.90;99.90;;;;;;5052395;28;20170;-59
2022/05/14 01:07:28;;;;;;;6.07;2.80;;;13.90;99.90;;;;;;5052367;28;20167;-59
2022/05/14 01:09:59;;;;;;;3.35;2.60;;;13.80;99.90;;;;;;5052410;28;20627;-59
2022/05/14 01:12:27;;;;;;;9.10;2.72;;;13.90;99.90;;;;;;5052300;28;20301;-59
2022/05/14 01:14:52;;;;;;;6.72;3.08;;;13.90;99.90;;;;;;5052026;28;20167;-59
2022/05/14 01:17:18;;;;;;;7.13;3.30;;;13.90;99.90;;;;;;5052259;28;20177;-60
2022/05/14 01:19:44;;;;;;;9.38;3.17;;;13.90;99.90;;;;;;5050902;28;20166;-59
2022/05/14 01:22:31;;;;;;;7.65;2.83;;;13.80;99.90;;;;;;5052742;28;20233;-59
2022/05/14 01:27:49;;;;;;;4.75;2.80;;;13.70;99.90;;;;;;5052067;28;20186;-55
2022/05/14 01:30:16;;;;;;;6.70;2.72;;;13.60;99.90;;;;;;5052337;28;20162;-55
2022/05/14 01:32:45;;;;;;;10.45;3.17;;;13.60;99.90;;;;;;5052211;28;20217;-54
2022/05/14 01:35:15;;;;;;;5.50;2.88;;;13.50;99.90;;;;;;5052331;28;20159;-54
2022/05/14 01:37:40;;;;;;;6.13;2.50;;;13.50;99.90;;;;;;5052550;28;20182;-56
2022/05/14 01:40:06;;;;;;;6.13;2.55;;;13.40;99.90;;;;;;5052411;28;20518;-54
2022/05/14 01:42:32;;;;;;;7.00;2.38;;;13.40;99.90;;;;;;5051950;28;20190;-55
2022/05/14 01:44:58;;;;;;;6.68;2.40;;;13.30;99.90;;;;;;5051918;28;20217;-55
2022/05/14 01:47:23;;;;;;;6.25;2.60;;;13.30;99.90;;;;;;5052222;28;20159;-55
2022/05/14 01:49:49;;;;;;;5.63;2.70;;;13.40;99.90;;;;;;5051904;28;20738;-55
2022/05/14 01:52:14;;;;;;;6.75;2.60;;;13.40;99.90;;;;;;5051756;28;20210;-55
2022/05/14 01:54:40;;;;;;;8.23;3.28;;;13.30;99.90;;;;;;5052299;28;20209;-56
2022/05/14 01:57:05;;;;;;;3.85;2.17;;;13.40;99.90;;;;;;5051820;28;20213;-55
2022/05/14 01:59:31;;;;;;;6.93;2.97;;;13.30;99.90;;;;;;5051729;28;20249;-55
2022/05/14 02:01:57;;;;;;;8.60;2.95;;;13.30;99.90;;;;;;5051719;28;20178;-55
2022/05/14 02:04:22;;;;;;;5.38;2.55;;;13.30;99.90;;;;;;5051613;28;20213;-55
2022/05/14 02:06:48;;;;;;;5.88;2.72;;;13.30;99.90;;;;;;5051983;28;20181;-56
2022/05/14 02:09:14;;;;;;;7.20;2.78;;;13.30;99.90;;;;;;5051612;28;20624;-56
2022/05/14 02:11:41;;;;;;;7.70;2.75;;;13.30;99.90;;;;;;5052170;28;20217;-56
2022/05/14 02:14:08;;;;;;;5.53;2.72;;;13.20;99.90;;;;;;5052184;28;20182;-56
2022/05/14 02:16:34;;;;;;;8.10;2.70;;;13.20;99.90;;;;;;5051699;28;20173;-59
2022/05/14 02:18:59;;;;;;;7.63;2.50;;;13.10;99.90;;;;;;5051674;28;20242;-55
2022/05/14 02:21:26;;;;;;;8.85;2.80;;;13.10;99.90;;;;;;5051599;28;20217;-54
2022/05/14 02:23:53;;;;;;;8.35;3.15;;;13.10;99.90;;;;;;5051754;28;20171;-54
2022/05/14 02:26:19;;;;;;;6.43;2.15;;;13.10;99.90;;;;;;5051779;28;20167;-54
2022/05/14 02:28:44;;;;;;;5.68;2.30;;;13.10;99.90;;;;;;5055109;28;20185;-56
2022/05/14 02:31:11;;;;;;;5.38;2.53;;;13.10;99.90;;;;;;5055598;28;20163;-55
2022/05/14 02:33:37;;;;;;;5.50;2.53;;;13.10;99.90;;;;;;5055812;28;20182;-54
2022/05/14 02:36:04;;;;;;;6.18;2.63;;;13.00;99.90;;;;;;5055240;28;20173;-54
2022/05/14 02:38:31;;;;;;;6.78;2.60;;;13.00;99.90;;;;;;5055038;28;20536;-54
2022/05/14 02:40:57;;;;;;;6.65;2.78;;;13.20;99.90;;;;;;5055090;28;20683;-59
2022/05/14 02:43:23;;;;;;;7.10;2.40;;;13.20;99.90;;;;;;5055063;28;20367;-59
2022/05/14 02:45:49;;;;;;;4.57;2.50;;;13.10;99.90;;;;;;5055012;28;20198;-59
2022/05/14 02:48:15;;;;;;;5.82;2.42;;;13.20;99.90;;;;;;5055021;28;20210;-58
2022/05/14 02:50:41;;;;;;;8.05;2.85;;;13.10;99.90;;;;;;5055285;28;20646;-55
2022/05/14 02:53:07;;;;;;;5.05;2.63;;;13.10;99.90;;;;;;5055083;28;20203;-59
2022/05/14 02:55:33;;;;;;;3.95;2.35;;;13.10;99.90;;;;;;5054902;28;20162;-59
2022/05/14 02:57:59;;;;;;;7.75;2.80;;;13.10;99.90;;;;;;5054989;28;20522;-55
2022/05/14 03:00:25;;;;;;;5.05;2.60;;;13.00;99.90;;;;;;5054736;28;20177;-58
2022/05/14 03:02:51;;;;;;;6.35;2.30;;;13.00;99.90;;;;;;5054581;28;20668;-59
2022/05/14 03:05:19;;;;;;;6.22;2.20;;;12.90;99.90;;;;;;5054652;28;20190;-58
2022/05/14 03:07:45;;;;;;;5.70;2.50;;;12.80;99.90;;;;;;5054840;28;20224;-60
2022/05/14 03:10:12;;;;;;;5.72;2.50;;;12.80;99.90;;;;;;5053625;28;20167;-61
2022/05/14 03:12:38;;;;;;;5.75;2.40;;;12.80;99.90;;;;;;5055009;28;20292;-60
2022/05/14 03:15:05;;;;;;;5.82;2.25;;;12.70;99.90;;;;;;5054483;28;20169;-60
2022/05/14 03:17:34;;;;;;;6.88;2.30;;;12.70;99.90;;;;;;5054410;28;20190;-56
2022/05/14 03:20:06;;;;;;;6.38;2.22;;;12.60;99.90;;;;;;5054455;28;20616;-55
2022/05/14 03:22:35;;;;;;;11.05;2.20;;;12.60;99.90;;;;;;5054249;28;20198;-54
2022/05/14 03:25:01;;;;;;;4.35;2.03;;;12.60;99.90;;;;;;5054296;28;20175;-55
2022/05/14 03:27:27;;;;;;;5.18;2.70;;;12.60;99.90;;;;;;5054283;28;20258;-55
2022/05/14 03:29:54;;;;;;;11.40;2.35;;;12.50;99.90;;;;;;5054224;28;20225;-56
2022/05/14 03:32:20;;;;;;;6.63;2.10;;;12.50;99.90;;;;;;5054307;28;20214;-56
2022/05/14 03:34:45;;;;;;;5.70;2.55;;;12.40;99.90;;;;;;5054319;28;20522;-61
2022/05/14 03:37:11;;;;;;;6.43;2.47;;;12.40;99.90;;;;;;5053953;28;20495;-56
2022/05/14 03:39:37;;;;;;;7.75;2.45;;;12.30;99.90;;;;;;5054195;28;20249;-56
2022/05/14 03:42:03;;;;;;;5.28;2.13;;;12.30;99.90;;;;;;5054012;28;20174;-59
2022/05/14 03:44:28;;;;;;;5.93;2.70;;;12.20;99.90;;;;;;5053815;28;20159;-57
2022/05/14 03:46:54;;;;;;;9.73;2.45;;;12.20;99.90;;;;;;5053911;28;20177;-59
2022/05/14 03:49:19;;;;;;;3.63;2.30;;;12.30;99.90;;;;;;5053932;28;20523;-60
2022/05/14 03:51:45;;;;;;;4.13;2.50;;;12.30;99.90;;;;;;5053704;28;20214;-60
2022/05/14 03:54:10;;;;;;;4.55;2.38;;;12.40;99.90;;;;;;5054040;28;20178;-60
2022/05/14 03:56:39;;;;;;;3.30;2.17;;;11.60;99.90;;;;;;5054018;28;20194;-58
2022/05/14 03:59:06;;;;;;;8.98;2.70;;;12.20;99.90;;;;;;5053865;28;20175;-58
2022/05/14 04:01:32;;;;;;;6.85;2.58;;;12.00;99.90;;;;;;5053838;28;20178;-57
2022/05/14 04:03:57;;;;;;;8.73;2.60;;;12.00;99.90;;;;;;5053371;28;20215;-60
2022/05/14 04:06:23;;;;;;;6.30;2.72;;;12.10;99.90;;;;;;5053586;28;20178;-61
2022/05/14 04:08:49;;;;;;;9.20;2.65;;;12.20;99.90;;;;;;5053477;28;20166;-56
2022/05/14 04:11:14;;;;;;;4.95;2.15;;;12.30;99.90;;;;;;5053343;28;20650;-57
2022/05/14 04:13:41;;;;;;;3.88;2.20;;;12.30;99.90;;;;;;5053708;28;20167;-56
2022/05/14 04:16:07;;;;;;;7.10;2.42;;;12.40;99.90;;;;;;5053875;28;20181;-55
2022/05/14 04:18:33;;;;;;;4.25;2.53;;;12.40;99.90;;;;;;5053488;28;20563;-55
2022/05/14 04:21:00;;;;;;;5.25;2.53;;;12.30;99.90;;;;;;5053497;28;20522;-56
2022/05/14 04:23:28;;;;;;;6.38;2.30;;;12.30;99.90;;;;;;5053434;28;20178;-54
2022/05/14 04:25:55;;;;;;;6.65;2.55;;;12.40;99.90;;;;;;5053050;28;20513;-54
2022/05/14 04:28:21;;;;;;;4.75;2.33;;;12.40;99.90;;;;;;5053117;28;20714;-58
2022/05/14 04:30:48;;;;;;;4.78;2.65;;;12.30;99.90;;;;;;5052981;28;20175;-58
2022/05/14 04:33:13;;;;;;;5.63;2.53;;;12.30;99.90;;;;;;5053011;28;20226;-59
2022/05/14 04:35:39;;;;;;;6.32;2.50;;;12.20;99.90;;;;;;5053215;28;20635;-59
2022/05/14 04:38:05;;;;;;;7.18;2.30;;;12.20;99.90;;;;;;5053130;28;20178;-57
2022/05/14 04:40:31;;;;;;;7.57;2.92;;;12.10;99.90;;;;;;5051616;28;20167;-56
2022/05/14 04:42:57;;;;;;;3.53;2.25;;;12.10;99.90;;;;;;5052969;28;20266;-55
2022/05/14 04:45:22;;;;;;;4.68;2.25;;;12.10;99.90;;;;;;5051777;28;20158;-56
2022/05/14 04:47:48;;;;;;;3.75;2.03;;;12.20;99.90;;;;;;5052702;28;20171;-57
2022/05/14 04:50:15;;;;;;;6.78;3.38;;;12.20;99.90;;;;;;5052237;28;20182;-56
2022/05/14 04:52:40;;;;;;;3.83;2.47;;;12.20;99.90;;;;;;5052817;28;20232;-56
2022/05/14 04:55:08;;;;;;;6.32;2.80;;;12.80;99.90;;;;;;5052923;28;20235;-54
2022/05/14 04:57:33;;;;;;;4.82;2.40;;;12.30;99.90;;;;;;5052573;28;20185;-54
2022/05/14 04:59:59;;;;;;;6.97;2.70;;;12.50;99.90;;;;;;5052745;28;20175;-54
2022/05/14 05:05:12;;;;;;;4.03;2.25;;;12.70;99.90;;;;;;5052961;28;20607;-54
2022/05/14 05:07:37;;;;;;;5.10;2.40;;;12.90;99.90;;;;;;5052679;28;20178;-55
2022/05/14 05:10:03;;;;;;;6.38;2.30;;;12.90;99.90;;;;;;5052313;28;20259;-55
2022/05/14 05:12:29;;;;;;;7.28;2.17;;;13.00;99.90;;;;;;5052459;28;20207;-54
2022/05/14 05:14:55;;;;;;;5.70;2.47;;;13.10;99.90;;;;;;5052310;28;20178;-54
2022/05/14 05:17:20;;;;;;;8.43;3.00;;;13.10;99.90;;;;;;5052528;28;20170;-54
2022/05/14 05:19:46;;;;;;;8.07;2.92;;;13.10;99.90;;;;;;5052193;28;20203;-54
2022/05/14 05:22:12;;;;;;;3.17;2.15;;;13.10;99.90;;;;;;5052189;28;20257;-54
2022/05/14 05:24:38;;;;;;;5.45;2.10;;;13.10;99.90;;;;;;5052348;28;20167;-54
2022/05/14 05:27:04;;;;;;;5.85;2.63;;;13.20;99.90;;;;;;5052336;28;20170;-54
2022/05/14 05:29:30;;;;;;;11.35;3.10;;;13.20;99.90;;;;;;5052018;28;20624;-54
2022/05/14 05:31:56;;;;;;;8.48;2.50;;;13.30;99.90;;;;;;5051888;28;20202;-54
2022/05/14 05:34:21;;;;;;;5.95;2.70;;;13.30;99.90;;;;;;5052278;28;20258;-54
2022/05/14 05:36:47;;;;;;;4.47;2.08;;;13.40;99.90;;;;;;5052037;28;20163;-54
2022/05/14 05:39:13;;;;;;;5.53;2.20;;;13.40;99.90;;;;;;5052170;28;20178;-54
2022/05/14 05:41:38;;;;;;;4.22;2.65;;;13.50;99.90;;;;;;5052466;28;20198;-54
2022/05/14 05:44:04;;;;;;;4.07;2.45;;;13.50;99.90;;;;;;5051639;28;20166;-54
2022/05/14 05:46:33;;;;;;;6.20;2.65;;;13.50;99.90;;;;;;5051911;28;20589;-54
2022/05/14 05:48:58;;;;;;;5.15;2.55;;;13.60;99.90;;;;;;5052048;28;20335;-54
2022/05/14 05:51:24;;;;;;;4.53;2.33;;;13.90;99.90;;;;;;5051975;28;20628;-55
2022/05/14 05:56:56;;;;;;;4.68;2.28;;;14.00;99.90;;;;;;5051889;28;20197;-54
2022/05/14 05:59:23;;;;;;;4.25;2.42;;;14.00;99.90;;;;;;5050798;28;20562;-54
2022/05/14 06:01:50;;;;;;;7.03;2.92;;;14.00;99.90;;;;;;5052019;28;20666;-54
2022/05/14 06:04:15;;;;;;;5.82;2.55;;;13.90;99.90;;;;;;5055654;28;20218;-54
2022/05/14 06:06:42;;;;;;;6.90;2.97;;;14.00;99.90;;;;;;5055769;28;20615;-54
2022/05/14 06:09:10;;;;;;;6.32;2.78;;;13.90;99.90;;;;;;5056176;28;20171;-54
2022/05/14 06:11:36;;;;;;;6.68;2.35;;;14.00;99.90;;;;;;5055854;28;20203;-54
2022/05/14 06:14:01;;;;;;;7.55;2.85;;;14.00;99.90;;;;;;5055842;28;20170;-54
2022/05/14 06:16:27;;;;;;;10.32;3.00;;;14.10;99.90;;;;;;5055435;28;20170;-54
2022/05/14 06:18:52;;;;;;;8.30;2.63;;;14.30;99.90;;;;;;5055680;28;20654;-54
2022/05/14 06:21:18;;;;;;;6.88;2.67;;;14.20;99.90;;;;;;5055406;28;20635;-54
2022/05/14 06:23:44;;;;;;;5.85;2.97;;;14.10;99.90;;;;;;5055254;28;20612;-54
2022/05/14 06:26:09;;;;;;;8.90;2.97;;;14.20;99.90;;;;;;5055651;28;20167;-54
2022/05/14 06:28:35;;;;;;;4.15;2.20;;;14.20;99.90;;;;;;5055254;28;20620;-54
2022/05/14 06:31:00;;;;;;;6.05;2.90;;;14.30;99.90;;;;;;5055314;28;20175;-56
2022/05/14 06:33:26;;;;;;;10.05;2.47;;;14.50;99.90;;;;;;5055227;28;20208;-56
2022/05/14 06:35:52;;;;;;;9.93;3.17;;;14.40;99.90;;;;;;5054021;28;20240;-54
2022/05/14 06:38:19;;;;;;;6.93;2.88;;;14.50;99.90;;;;;;5055445;28;20193;-54
2022/05/14 06:40:45;;;;;;;6.13;2.70;;;14.60;99.90;;;;;;5055183;28;20638;-58
2022/05/14 06:43:10;;;;;;;7.07;3.00;;;14.70;99.90;;;;;;5055621;28;20265;-59
2022/05/14 06:45:36;;;;;;;8.70;3.75;;;13.70;99.90;;;;;;5055520;28;20165;-58
2022/05/14 06:48:02;;;;;;;6.03;2.90;;;15.00;99.90;;;;;;5055326;28;20666;-58
2022/05/14 06:50:31;;;;;;;10.40;2.85;;;15.00;99.90;;;;;;5055156;28;20163;-59
2022/05/14 06:53:00;;;;;;;8.88;2.75;;;15.10;99.90;;;;;;5053520;28;20222;-58
2022/05/14 06:55:32;;;;;;;6.07;2.67;;;15.30;99.90;;;;;;5054786;28;20163;-55
2022/05/14 06:57:58;;;;;;;7.80;3.13;;;15.20;99.90;;;;;;5055113;28;20205;-53
2022/05/14 07:00:24;;;;;;;8.80;3.40;;;15.30;99.90;;;;;;5054788;28;20198;-54
2022/05/14 07:02:50;;;;;;;5.65;3.40;;;15.30;99.90;;;;;;5054465;28;20167;-54
2022/05/14 07:08:00;;;;;;;12.05;3.88;;;15.50;99.90;;;;;;5054935;28;20590;-53
2022/05/14 07:10:26;;;;;;;8.32;3.58;;;15.60;99.90;;;;;;5054725;28;20167;-54
2022/05/14 07:12:53;;;;;;;12.88;3.53;;;15.80;99.90;;;;;;5053994;28;20206;-54
2022/05/14 07:15:19;;;;;;;9.35;3.67;;;15.70;99.90;;;;;;5054796;28;20177;-54
2022/05/14 07:17:44;;;;;;;8.73;3.67;;;15.70;99.90;;;;;;5054443;28;20174;-58
2022/05/14 07:20:11;;;;;;;9.02;3.38;;;15.90;99.90;;;;;;5054982;28;20170;-55
2022/05/14 07:22:36;;;;;;;12.35;4.13;;;15.90;99.90;;;;;;5054591;28;20171;-55
2022/05/14 07:25:03;;;;;;;8.82;3.58;;;16.10;99.90;;;;;;5054284;28;20643;-58
2022/05/14 07:27:28;;;;;;;7.85;3.72;;;16.20;99.90;;;;;;5054233;28;20645;-57
2022/05/14 07:29:54;;;;;;;10.43;3.28;;;16.40;99.90;;;;;;5054272;28;20163;-54
2022/05/14 07:32:19;;;;;;;12.32;3.83;;;16.50;99.90;;;;;;5054045;28;20194;-59
2022/05/14 07:34:46;;;;;;;8.63;3.28;;;16.50;99.90;;;;;;5054386;28;20206;-56
2022/05/14 07:37:24;;;;;;;11.48;3.72;;;16.80;99.90;;;;;;5054095;28;20170;-54
2022/05/14 07:40:04;;;;;;;8.15;4.20;;;16.70;99.90;;;;;;5054059;28;20534;-54
2022/05/14 07:42:37;;;;;;;11.80;3.90;;;16.80;99.90;;;;;;5053860;28;20166;-53
2022/05/14 07:45:08;;;;;;;10.07;3.70;;;16.80;99.90;;;;;;5053960;28;20163;-56
2022/05/14 07:47:35;;;;;;;10.27;4.10;;;16.90;99.90;;;;;;5054200;28;20167;-54
2022/05/14 07:50:02;;;;;;;9.98;4.45;;;17.10;99.90;;;;;;5053836;28;20531;-55
2022/05/14 07:52:28;;;;;;;14.90;3.97;;;17.10;99.90;;;;;;5054022;28;20210;-53
2022/05/14 07:54:54;;;;;;;13.60;3.85;;;17.10;99.90;;;;;;5053777;28;20186;-59
2022/05/14 07:57:19;;;;;;;9.57;4.03;;;17.20;99.90;;;;;;5053644;28;20167;-57
2022/05/14 07:59:45;;;;;;;13.38;4.63;;;17.30;99.90;;;;;;5053554;28;20167;-57
2022/05/14 08:02:26;;;;;;;14.15;4.75;;;17.70;99.90;;;;;;5053643;28;20170;-55
2022/05/14 08:04:52;;;;;;;11.60;4.32;;;17.70;99.90;;;;;;5053344;28;20237;-56
2022/05/14 08:07:17;;;;;;;9.43;3.90;;;17.50;99.90;;;;;;5053546;28;20166;-55
2022/05/14 08:09:43;;;;;;;11.07;4.35;;;17.50;99.90;;;;;;5053473;28;20550;-54
2022/05/14 08:12:11;;;;;;;11.95;4.60;;;17.60;99.90;;;;;;5053587;28;20741;-55
2022/05/14 08:14:39;;;;;;;14.40;4.57;;;17.70;99.90;;;;;;5053942;28;20182;-57
2022/05/14 08:17:11;;;;;;;12.60;4.57;;;17.50;99.90;;;;;;5053257;28;20174;-57
2022/05/14 08:19:37;;;;;;;13.38;4.22;;;17.70;99.90;;;;;;5053658;28;20169;-58
2022/05/14 08:24:48;;;;;;;12.80;5.40;;;17.60;99.90;;;;;;5052642;28;20208;-58
2022/05/14 08:27:13;;;;;;;12.27;4.90;;;17.70;99.90;;;;;;5053148;28;20179;-57
2022/05/14 08:29:40;;;;;;;8.90;4.05;;;17.90;99.90;;;;;;5053465;28;20197;-54
2022/05/14 08:32:06;;;;;;;10.50;4.38;;;18.10;99.90;;;;;;5052990;28;20202;-53
2022/05/14 08:34:32;;;;;;;10.90;5.35;;;18.40;99.90;;;;;;5052996;28;20552;-53
2022/05/14 08:36:58;;;;;;;9.98;4.15;;;18.30;99.90;;;;;;5052990;28;20536;-53
2022/05/14 08:39:25;;;;;;;14.43;5.45;;;18.50;99.90;;;;;;5052885;28;20170;-53
2022/05/14 08:41:52;;;;;;;21.10;5.68;;;18.40;99.90;;;;;;5052925;28;20221;-53
2022/05/14 08:44:30;;;;;;;14.30;5.82;;;18.50;99.90;;;;;;5052822;28;20677;-53
2022/05/14 08:46:59;;;;;;;15.38;5.72;;;18.70;99.90;;;;;;5052763;28;20616;-53
2022/05/14 08:49:36;;;;;;;14.80;5.05;;;18.70;99.90;;;;;;5052772;28;20177;-53
2022/05/14 08:52:04;;;;;;;11.73;4.80;;;18.80;99.90;;;;;;5052502;28;20231;-53
2022/05/14 08:54:30;;;;;;;10.63;4.25;;;18.80;99.90;;;;;;5052559;28;20170;-53
2022/05/14 08:57:00;;;;;;;16.15;5.72;;;18.80;99.90;;;;;;5051687;28;20170;-53
2022/05/14 08:59:29;;;;;;;19.88;6.00;;;18.60;99.90;;;;;;5052745;28;20507;-53
2022/05/14 09:02:26;;;;;;;15.05;6.13;;;18.90;99.90;;;;;;5052353;28;20547;-53
2022/05/14 09:05:09;;;;;;;15.63;5.30;;;19.00;99.90;;;;;;5048316;28;20219;-56
2022/05/14 09:07:36;;;;;;;14.43;5.82;;;19.20;99.90;;;;;;5052444;28;20167;-54
2022/05/14 09:10:05;;;;;;;17.92;6.68;;;19.20;99.90;;;;;;5052577;28;20175;-53
2022/05/14 09:12:34;;;;;;;18.38;5.30;;;19.30;99.90;;;;;;5052303;28;20198;-53
2022/05/14 09:15:10;;;;;;;17.15;6.28;;;19.10;99.90;;;;;;5052302;28;20539;-53
2022/05/14 09:17:35;;;;;;;16.17;5.00;;;19.10;99.90;;;;;;5052085;28;20181;-52
2022/05/14 09:20:01;;;;;;;13.98;5.05;;;19.20;99.90;;;;;;5052215;28;20163;-54
2022/05/14 09:22:36;;;;;;;14.60;4.95;;;19.30;99.90;;;;;;5052351;28;20166;-53
2022/05/14 09:25:20;;;;;;;13.25;5.32;;;19.70;99.90;;;;;;5052105;28;20706;-53
2022/05/14 09:27:51;;;;;;;16.75;5.60;;;20.10;99.90;;;;;;5052313;28;20178;-53
2022/05/14 09:30:35;;;;;;;19.10;5.45;;;20.30;99.90;;;;;;5052135;28;20171;-60
2022/05/14 09:33:02;;;;;;;16.85;5.80;;;20.50;99.90;;;;;;5051919;28;20298;-54
2022/05/14 09:35:32;;;;;;;11.85;5.72;;;19.90;99.90;;;;;;5052013;28;20663;-55
2022/05/14 09:38:17;;;;;;;11.63;5.30;;;19.90;99.90;;;;;;5051791;28;20192;-57
2022/05/14 09:40:42;;;;;;;16.00;4.25;;;20.30;99.90;;;;;;5052166;28;20166;-57
2022/05/14 09:43:16;;;;;;;12.85;5.25;;;20.50;99.90;;;;;;5052173;28;20159;-53
2022/05/14 09:46:07;;;;;;;10.77;4.72;;;20.40;99.90;;;;;;5051918;28;20627;-58
2022/05/14 09:48:54;;;;;;;13.52;5.35;;;20.50;99.90;;;;;;5052202;28;20181;-59
2022/05/14 09:51:38;;;;;;;14.95;3.92;;;20.50;99.90;;;;;;5052034;28;20167;-59
2022/05/14 09:54:14;;;;;;;10.82;3.78;;;20.90;99.90;;;;;;5051773;28;20177;-58
2022/05/14 09:57:06;;;;;;;13.50;4.75;;;21.00;99.90;;;;;;5052100;28;20170;-59
2022/05/14 09:59:40;;;;;;;22.70;5.03;;;20.80;99.90;;;;;;5050481;28;20194;-59
2022/05/14 10:02:31;;;;;;;10.90;4.30;;;20.40;99.90;;;;;;5052000;28;20626;-55
2022/05/14 10:05:40;;;;;;;11.38;3.90;;;20.60;99.90;;;;;;5051327;28;20189;-54
2022/05/14 10:08:46;;;;;;;11.02;4.15;;;20.70;99.90;;;;;;5004688;28;20579;-59
2022/05/14 10:11:11;;;;;;;13.70;4.10;;;21.80;99.90;;;;;;5029588;28;20179;-58
2022/05/14 10:13:55;;;;;;;11.85;3.40;;;21.20;99.90;;;;;;5048287;28;20218;-57
2022/05/14 10:16:37;;;;;;;11.32;3.67;;;21.50;99.90;;;;;;5051625;28;20167;-57
2022/05/14 10:19:31;;;;;;;10.73;3.67;;;21.30;99.90;;;;;;5051410;28;20170;-60
2022/05/14 10:22:19;;;;;;;10.98;4.05;;;21.40;99.90;;;;;;5051788;28;20186;-59
2022/05/14 10:28:20;;;;;;;12.20;3.33;;;21.70;99.90;;;;;;5051440;28;20169;-60
2022/05/14 10:31:04;;;;;;;12.23;3.47;;;21.70;99.90;;;;;;5051557;28;20175;-59
2022/05/14 10:33:31;;;;;;;11.20;3.13;;;21.90;99.90;;;;;;5051565;28;20206;-59
2022/05/14 10:36:08;;;;;;;10.70;3.35;;;21.50;99.90;;;;;;5051614;28;20174;-60
2022/05/14 10:38:42;;;;;;;10.05;3.40;;;21.60;99.90;;;;;;5051006;28;20250;-59
2022/05/14 10:41:08;;;;;;;9.43;3.17;;;21.90;99.90;;;;;;5051617;28;20174;-59
2022/05/14 10:43:45;;;;;;;11.80;3.65;;;21.90;99.90;;;;;;5051625;28;20163;-59
2022/05/14 10:46:16;;;;;;;9.18;3.45;;;21.90;99.90;;;;;;5051660;28;20308;-58
2022/05/14 10:48:56;;;;;;;10.32;3.88;;;21.90;99.90;;;;;;5052728;28;20159;-58
2022/05/14 10:51:30;;;;;;;11.43;3.20;;;21.90;99.90;;;;;;5054707;28;20174;-58
2022/05/14 10:54:00;;;;;;;9.50;3.35;;;22.10;99.90;;;;;;5055387;28;20178;-58
2022/05/14 10:56:33;;;;;;;14.77;2.90;;;22.20;99.90;;;;;;5055413;28;20178;-57
2022/05/14 10:59:11;;;;;;;8.60;3.50;;;22.00;99.90;;;;;;5054853;28;20174;-57
2022/05/14 11:01:59;;;;;;;9.35;3.15;;;22.00;99.90;;;;;;5054752;28;20538;-59
2022/05/14 11:04:31;;;;;;;13.27;3.67;;;22.20;99.90;;;;;;5054277;28;20226;-59
2022/05/14 11:07:04;;;;;;;12.05;3.10;;;22.70;99.90;;;;;;5054716;28;20163;-59
2022/05/14 11:09:35;;;;;;;11.20;3.65;;;23.00;99.90;;;;;;5053584;28;20523;-59
2022/05/14 11:12:04;;;;;;;15.82;3.80;;;22.50;99.90;;;;;;5053274;28;20206;-54
2022/05/14 11:14:57;;;;;;;10.60;3.65;;;22.70;99.90;;;;;;5053906;28;20719;-55
2022/05/14 11:17:24;;;;;;;12.02;3.63;;;23.00;99.90;;;;;;5054068;28;20643;-54
2022/05/14 11:20:11;;;;;;;12.00;3.03;;;22.90;99.90;;;;;;5054072;28;20208;-53
2022/05/14 11:22:39;;;;;;;12.88;3.25;;;22.50;99.90;;;;;;5053667;28;20710;-57
2022/05/14 11:25:16;;;;;;;9.75;3.33;;;22.20;99.90;;;;;;5054291;28;20171;-55
2022/05/14 11:27:55;;;;;;;10.52;3.78;;;22.10;99.90;;;;;;5053817;28;20170;-55
2022/05/14 11:30:40;;;;;;;13.73;3.90;;;22.20;99.90;;;;;;5053779;28;20240;-55
2022/05/14 11:33:28;;;;;;;8.38;3.50;;;22.50;99.90;;;;;;5052308;28;20206;-54
2022/05/14 11:35:56;;;;;;;15.32;3.72;;;22.60;99.90;;;;;;5053740;28;20192;-55
2022/05/14 11:38:26;;;;;;;14.82;3.97;;;23.10;99.90;;;;;;5053659;28;20536;-55
2022/05/14 11:41:00;;;;;;;8.57;3.50;;;23.00;99.90;;;;;;5054148;28;20171;-55
2022/05/14 11:43:37;;;;;;;7.40;2.97;;;23.20;99.90;;;;;;5053776;28;20174;-56
2022/05/14 11:46:05;;;;;;;15.25;4.05;;;23.20;99.90;;;;;;5053705;28;20167;-54
2022/05/14 11:48:50;;;;;;;8.48;3.10;;;23.50;99.90;;;;;;5053640;28;20171;-55
2022/05/14 11:51:40;;;;;;;4.75;2.60;;;23.20;99.90;;;;;;5053580;28;20166;-56
2022/05/14 11:54:09;;;;;;;6.57;2.67;;;23.20;99.90;;;;;;5053515;28;20261;-59
2022/05/14 11:57:07;;;;;;;8.25;3.75;;;23.30;99.90;;;;;;5053763;28;20178;-59
2022/05/14 11:59:52;;;;;;;6.68;2.80;;;23.20;99.90;;;;;;5052339;28;20189;-55
2022/05/14 12:02:34;;;;;;;4.72;2.45;;;23.20;99.90;;;;;;5053373;28;20205;-55
2022/05/14 12:05:00;;;;;;;11.20;2.80;;;23.20;99.90;;;;;;5052993;28;20564;-54
2022/05/14 12:07:46;;;;;;;6.88;3.33;;;23.60;99.90;;;;;;5053179;28;20163;-53
2022/05/14 12:10:25;;;;;;;8.82;3.33;;;23.50;99.90;;;;;;5053086;28;20191;-54
2022/05/14 12:13:16;;;;;;;8.95;2.88;;;23.50;99.90;;;;;;5052723;28;20281;-53
2022/05/14 12:15:52;;;;;;;6.20;2.95;;;23.70;99.90;;;;;;5053742;28;20213;-53
2022/05/14 12:18:18;;;;;;;10.45;3.28;;;23.90;99.90;;;;;;5050774;28;20582;-54
2022/05/14 12:20:56;;;;;;;11.10;3.05;;;23.80;99.90;;;;;;5051119;28;20171;-55
2022/05/14 12:23:37;;;;;;;9.98;3.60;;;24.00;99.90;;;;;;5051709;28;20186;-55
2022/05/14 12:26:18;;;;;;;11.10;3.45;;;24.00;99.90;;;;;;5051025;28;20185;-55
2022/05/14 12:28:44;;;;;;;11.38;3.13;;;23.50;99.90;;;;;;5049538;28;20175;-54
2022/05/14 12:33:57;;;;;;;9.77;3.50;;;23.70;99.90;;;;;;5050812;28;20554;-55
2022/05/14 12:36:24;;;;;;;11.13;3.25;;;23.80;99.90;;;;;;5052306;28;20163;-54
2022/05/14 12:38:50;;;;;;;9.68;3.25;;;23.50;99.90;;;;;;5051872;28;20247;-54
2022/05/14 12:41:40;;;;;;;11.02;3.75;;;23.80;99.90;;;;;;5052005;28;20585;-53
2022/05/14 12:44:35;;;;;;;11.70;3.33;;;23.70;99.90;;;;;;5051845;28;20169;-55
2022/05/14 12:47:03;;;;;;;10.10;3.28;;;24.00;99.90;;;;;;5036602;28;20232;-54
2022/05/14 12:49:51;;;;;;;6.82;3.05;;;24.00;99.40;;;;;;5051589;28;20174;-54
2022/05/14 12:52:23;;;;;;;12.73;3.35;;;24.20;98.90;;;;;;5052041;28;20694;-54
2022/05/14 12:55:12;;;;;;;12.93;3.30;;;24.30;98.40;;;;;;5052454;28;20536;-55
2022/05/14 12:57:43;;;;;;;9.25;3.22;;;24.40;98.60;;;;;;5052200;28;20265;-55
2022/05/14 13:00:11;;;;;;;7.75;2.70;;;24.60;97.10;;;;;;5052324;28;20167;-58
2022/05/14 13:02:44;;;;;;;10.18;3.38;;;24.70;97.90;;;;;;5052195;28;20166;-54
2022/05/14 13:05:16;;;;;;;12.90;3.70;;;24.50;95.70;;;;;;5052399;28;20222;-58
2022/05/14 13:07:43;;;;;;;7.68;3.22;;;24.40;96.80;;;;;;5052194;28;20206;-55
2022/05/14 13:10:09;;;;;;;10.32;3.72;;;24.70;95.30;;;;;;5052268;28;20166;-58
2022/05/14 13:12:35;;;;;;;11.10;3.28;;;24.30;96.30;;;;;;5051608;28;20229;-55
2022/05/14 13:15:04;;;;;;;7.07;2.97;;;24.60;97.10;;;;;;5051571;28;20174;-56
2022/05/14 13:17:32;;;;;;;11.15;4.18;;;24.60;97.00;;;;;;5051873;28;20194;-59